createdAt,value
2017-04-19T00:00:30.264Z,0
2017-04-19T00:01:32.092Z,0
2017-04-19T00:02:33.886Z,0
2017-04-19T00:03:35.683Z,0
2017-04-19T00:04:37.817Z,0
2017-04-19T00:05:39.610Z,0
2017-04-19T00:06:41.406Z,0
2017-04-19T00:07:43.767Z,0
2017-04-19T00:08:45.966Z,0
2017-04-19T00:09:48.438Z,0
2017-04-19T00:10:50.237Z,0
2017-04-19T00:11:52.026Z,0
2017-04-19T00:12:53.822Z,0
2017-04-19T00:13:55.618Z,0
2017-04-19T00:14:57.415Z,0
2017-04-19T00:15:59.214Z,0
2017-04-19T00:17:01.010Z,0
2017-04-19T00:18:02.813Z,0
2017-04-19T00:19:04.612Z,0
2017-04-19T00:20:06.398Z,0
2017-04-19T00:21:08.460Z,0
2017-04-19T00:22:10.255Z,0
2017-04-19T00:23:12.049Z,0
2017-04-19T00:24:14.176Z,0
2017-04-19T00:25:15.967Z,0
2017-04-19T00:26:17.758Z,0
2017-04-19T00:27:19.552Z,0
2017-04-19T00:28:21.349Z,0
2017-04-19T00:29:23.136Z,0
2017-04-19T00:30:24.935Z,0
2017-04-19T00:31:26.725Z,0
2017-04-19T00:32:28.522Z,0
2017-04-19T00:33:30.525Z,0
2017-04-19T00:34:32.662Z,0
2017-04-19T00:35:34.456Z,0
2017-04-19T00:36:36.248Z,0
2017-04-19T00:37:38.047Z,0
2017-04-19T00:38:39.841Z,0
2017-04-19T00:39:41.643Z,0
2017-04-19T00:40:43.443Z,0
2017-04-19T00:41:45.230Z,0
2017-04-19T00:42:47.030Z,0
2017-04-19T00:43:49.162Z,0
2017-04-19T00:44:50.961Z,0
2017-04-19T00:45:53.122Z,0
2017-04-19T00:46:54.942Z,0
2017-04-19T00:47:56.738Z,0
2017-04-19T00:48:58.527Z,0
2017-04-19T00:50:00.320Z,0
2017-04-19T00:51:02.450Z,0
2017-04-19T00:52:04.248Z,0
2017-04-19T00:53:06.038Z,0
2017-04-19T00:54:07.838Z,0
2017-04-19T00:55:09.969Z,0
2017-04-19T00:56:11.766Z,0
2017-04-19T00:57:13.563Z,0
2017-04-19T00:58:15.354Z,0
2017-04-19T00:59:17.294Z,0
2017-04-19T01:00:19.087Z,0
2017-04-19T01:01:20.883Z,0
2017-04-19T01:02:22.674Z,0
2017-04-19T01:03:24.470Z,0
2017-04-19T01:04:26.263Z,0
2017-04-19T01:05:28.066Z,0
2017-04-19T01:06:29.860Z,0
2017-04-19T01:07:31.653Z,0
2017-04-19T01:08:33.447Z,0
2017-04-19T01:09:35.247Z,0
2017-04-19T01:10:37.043Z,0
2017-04-19T01:11:38.840Z,0
2017-04-19T01:12:40.805Z,0
2017-04-19T01:13:42.598Z,0
2017-04-19T01:14:45.073Z,0
2017-04-19T01:15:46.869Z,0
2017-04-19T01:16:48.664Z,0
2017-04-19T01:17:50.459Z,0
2017-04-19T01:18:52.254Z,0
2017-04-19T01:19:54.050Z,0
2017-04-19T01:20:56.179Z,0
2017-04-19T01:21:57.977Z,0
2017-04-19T01:22:59.773Z,0
2017-04-19T01:24:01.907Z,0
2017-04-19T01:25:03.706Z,0
2017-04-19T01:26:05.573Z,0
2017-04-19T01:27:07.529Z,0
2017-04-19T01:28:09.321Z,0
2017-04-19T01:29:11.117Z,0
2017-04-19T01:30:12.905Z,0
2017-04-19T01:31:14.707Z,0
2017-04-19T01:32:16.509Z,0
2017-04-19T01:33:18.305Z,0
2017-04-19T01:34:20.098Z,0
2017-04-19T01:35:21.895Z,0
2017-04-19T01:36:23.691Z,0
2017-04-19T01:37:25.481Z,0
2017-04-19T01:38:27.275Z,0
2017-04-19T01:39:29.071Z,0
2017-04-19T01:40:31.189Z,0
2017-04-19T01:41:33.320Z,0
2017-04-19T01:42:35.445Z,0
2017-04-19T01:43:37.252Z,0
2017-04-19T01:44:39.385Z,0
2017-04-19T01:45:41.520Z,0
2017-04-19T01:46:43.309Z,0
2017-04-19T01:47:45.106Z,0
2017-04-19T01:48:46.902Z,0
2017-04-19T01:49:48.701Z,0
2017-04-19T01:50:50.845Z,0
2017-04-19T01:51:52.641Z,0
2017-04-19T01:52:54.466Z,0
2017-04-19T01:53:56.378Z,0
2017-04-19T01:54:58.172Z,0
2017-04-19T01:56:00.301Z,0
2017-04-19T01:57:02.095Z,0
2017-04-19T01:58:03.891Z,0
2017-04-19T01:59:05.680Z,0
2017-04-19T02:00:07.826Z,0
2017-04-19T02:01:09.622Z,0
2017-04-19T02:02:11.416Z,0
2017-04-19T02:03:13.222Z,0
2017-04-19T02:04:15.348Z,0
2017-04-19T02:05:17.151Z,0
2017-04-19T02:06:19.169Z,0
2017-04-19T02:07:21.306Z,0
2017-04-19T02:08:23.093Z,0
2017-04-19T02:09:24.890Z,0
2017-04-19T02:10:26.684Z,0
2017-04-19T02:11:28.477Z,0
2017-04-19T02:12:30.271Z,0
2017-04-19T02:13:32.064Z,0
2017-04-19T02:14:33.858Z,0
2017-04-19T02:15:35.650Z,0
2017-04-19T02:16:37.443Z,0
2017-04-19T02:17:39.573Z,0
2017-04-19T02:18:41.406Z,0
2017-04-19T02:19:43.436Z,0
2017-04-19T02:20:45.230Z,0
2017-04-19T02:21:47.026Z,0
2017-04-19T02:22:48.823Z,0
2017-04-19T02:23:50.625Z,0
2017-04-19T02:24:52.421Z,0
2017-04-19T02:25:54.220Z,0
2017-04-19T02:26:56.015Z,0
2017-04-19T02:27:57.812Z,0
2017-04-19T02:28:59.601Z,0
2017-04-19T02:30:01.394Z,0
2017-04-19T02:31:03.193Z,0
2017-04-19T02:32:05.267Z,0
2017-04-19T02:33:07.401Z,0
2017-04-19T02:34:09.201Z,0
2017-04-19T02:35:10.996Z,0
2017-04-19T02:36:12.791Z,0
2017-04-19T02:37:14.584Z,0
2017-04-19T02:38:16.380Z,0
2017-04-19T02:39:18.169Z,0
2017-04-19T02:40:19.969Z,0
2017-04-19T02:41:21.760Z,0
2017-04-19T02:42:23.554Z,0
2017-04-19T02:43:25.701Z,0
2017-04-19T02:44:28.186Z,0
2017-04-19T02:45:29.981Z,0
2017-04-19T02:46:31.778Z,0
2017-04-19T02:47:33.573Z,0
2017-04-19T02:48:35.368Z,0
2017-04-19T02:49:37.499Z,0
2017-04-19T02:50:39.291Z,0
2017-04-19T02:51:41.088Z,0
2017-04-19T02:52:42.878Z,0
2017-04-19T02:53:44.671Z,0
2017-04-19T02:54:46.802Z,0
2017-04-19T02:55:48.596Z,0
2017-04-19T02:56:50.474Z,0
2017-04-19T02:57:52.268Z,0
2017-04-19T02:58:54.412Z,0
2017-04-19T02:59:56.213Z,0
2017-04-19T03:00:58.007Z,0
2017-04-19T03:02:00.143Z,0
2017-04-19T03:03:02.300Z,0
2017-04-19T03:04:04.099Z,0
2017-04-19T03:05:06.222Z,0
2017-04-19T03:06:08.019Z,0
2017-04-19T03:07:09.815Z,0
2017-04-19T03:08:11.608Z,0
2017-04-19T03:09:13.641Z,0
2017-04-19T03:10:15.429Z,0
2017-04-19T03:11:17.223Z,0
2017-04-19T03:12:19.020Z,0
2017-04-19T03:13:20.810Z,0
2017-04-19T03:14:22.605Z,0
2017-04-19T03:15:24.403Z,0
2017-04-19T03:16:26.551Z,0
2017-04-19T03:17:28.345Z,0
2017-04-19T03:18:30.485Z,0
2017-04-19T03:19:32.284Z,0
2017-04-19T03:20:34.417Z,0
2017-04-19T03:21:36.218Z,0
2017-04-19T03:22:38.008Z,1
2017-04-19T03:23:39.802Z,1
2017-04-19T03:24:41.597Z,1
2017-04-19T03:25:43.396Z,1
2017-04-19T03:26:45.185Z,1
2017-04-19T03:27:46.984Z,2
2017-04-19T03:28:49.117Z,2
2017-04-19T03:29:50.915Z,0
2017-04-19T03:30:52.705Z,1
2017-04-19T03:31:54.493Z,1
2017-04-19T03:32:56.328Z,3
2017-04-19T03:33:58.122Z,3
2017-04-19T03:35:00.619Z,3
2017-04-19T03:36:02.757Z,4
2017-04-19T03:37:04.556Z,4
2017-04-19T03:38:06.687Z,7
2017-04-19T03:39:08.482Z,7
2017-04-19T03:40:10.275Z,7
2017-04-19T03:41:12.070Z,9
2017-04-19T03:42:14.202Z,10
2017-04-19T03:43:15.999Z,13
2017-04-19T03:44:17.790Z,14
2017-04-19T03:45:19.922Z,16
2017-04-19T03:46:21.714Z,19
2017-04-19T03:47:23.781Z,22
2017-04-19T03:48:25.916Z,26
2017-04-19T03:49:27.711Z,29
2017-04-19T03:50:29.841Z,34
2017-04-19T03:51:31.630Z,39
2017-04-19T03:52:33.425Z,44
2017-04-19T03:53:35.218Z,51
2017-04-19T03:54:37.023Z,58
2017-04-19T03:55:39.155Z,65
2017-04-19T03:56:40.976Z,73
2017-04-19T03:57:42.769Z,82
2017-04-19T03:58:44.573Z,93
2017-04-19T03:59:46.450Z,104
2017-04-19T04:00:48.595Z,115
2017-04-19T04:01:50.385Z,127
2017-04-19T04:02:52.186Z,140
2017-04-19T04:03:53.975Z,154
2017-04-19T04:04:55.770Z,170
2017-04-19T04:05:57.566Z,186
2017-04-19T04:06:59.357Z,201
2017-04-19T04:08:01.486Z,220
2017-04-19T04:09:03.277Z,238
2017-04-19T04:10:05.074Z,257
2017-04-19T04:11:06.870Z,277
2017-04-19T04:12:08.945Z,297
2017-04-19T04:13:10.736Z,316
2017-04-19T04:14:12.534Z,337
2017-04-19T04:15:14.327Z,358
2017-04-19T04:16:16.122Z,379
2017-04-19T04:17:17.918Z,401
2017-04-19T04:18:19.718Z,424
2017-04-19T04:19:21.844Z,448
2017-04-19T04:20:23.645Z,472
2017-04-19T04:21:25.435Z,496
2017-04-19T04:22:27.229Z,518
2017-04-19T04:23:29.019Z,541
2017-04-19T04:24:30.909Z,565
2017-04-19T04:25:33.038Z,590
2017-04-19T04:26:34.832Z,611
2017-04-19T04:27:36.626Z,636
2017-04-19T04:28:38.752Z,659
2017-04-19T04:29:40.547Z,683
2017-04-19T04:30:42.341Z,706
2017-04-19T04:31:44.135Z,730
2017-04-19T04:32:45.934Z,754
2017-04-19T04:33:47.723Z,778
2017-04-19T04:34:49.521Z,804
2017-04-19T04:35:51.662Z,826
2017-04-19T04:36:53.657Z,848
2017-04-19T04:37:55.455Z,871
2017-04-19T04:38:57.248Z,892
2017-04-19T04:39:59.046Z,917
2017-04-19T04:41:00.833Z,941
2017-04-19T04:42:02.629Z,965
2017-04-19T04:43:04.761Z,986
2017-04-19T04:44:06.555Z,1009
2017-04-19T04:45:08.351Z,1032
2017-04-19T04:46:10.145Z,1054
2017-04-19T04:47:11.937Z,1077
2017-04-19T04:48:13.733Z,1099
2017-04-19T04:49:15.521Z,1123
2017-04-19T04:50:18.071Z,1145
2017-04-19T04:51:19.867Z,1167
2017-04-19T04:52:21.664Z,1188
2017-04-19T04:53:23.863Z,1209
2017-04-19T04:54:25.867Z,1230
2017-04-19T04:55:28.028Z,1251
2017-04-19T04:56:29.819Z,1271
2017-04-19T04:57:31.614Z,1295
2017-04-19T04:58:33.404Z,1319
2017-04-19T04:59:35.195Z,1340
2017-04-19T05:00:36.995Z,1361
2017-04-19T05:01:38.786Z,1384
2017-04-19T05:02:41.056Z,1406
2017-04-19T05:03:42.850Z,1427
2017-04-19T05:04:44.651Z,1447
2017-04-19T05:05:46.441Z,1468
2017-04-19T05:06:48.236Z,1487
2017-04-19T05:07:50.078Z,1508
2017-04-19T05:08:52.349Z,1529
2017-04-19T05:09:54.534Z,1546
2017-04-19T05:10:56.766Z,1565
2017-04-19T05:11:58.988Z,1585
2017-04-19T05:13:01.233Z,1602
2017-04-19T05:14:03.768Z,1622
2017-04-19T05:15:05.989Z,1641
2017-04-19T05:16:08.325Z,1658
2017-04-19T05:17:10.538Z,1678
2017-04-19T05:18:12.792Z,1698
2017-04-19T05:19:15.153Z,1715
2017-04-19T05:20:17.381Z,1734
2017-04-19T05:21:19.623Z,1752
2017-04-19T05:22:21.756Z,1771
2017-04-19T05:23:25.475Z,1795
2017-04-19T05:24:27.587Z,1832
2017-04-19T05:25:29.822Z,1901
2017-04-19T05:26:32.030Z,1947
2017-04-19T05:27:34.248Z,1921
2017-04-19T05:28:36.458Z,1915
2017-04-19T05:29:38.774Z,1930
2017-04-19T05:30:40.990Z,1944
2017-04-19T05:31:43.235Z,1951
2017-04-19T05:32:45.300Z,1965
2017-04-19T05:33:47.097Z,1996
2017-04-19T05:34:48.891Z,2050
2017-04-19T05:35:50.685Z,2042
2017-04-19T05:36:52.483Z,2024
2017-04-19T05:37:54.274Z,2028
2017-04-19T05:38:56.418Z,2035
2017-04-19T05:39:58.219Z,2047
2017-04-19T05:41:00.016Z,2062
2017-04-19T05:42:02.228Z,2079
2017-04-19T05:43:04.183Z,2102
2017-04-19T05:44:06.315Z,2125
2017-04-19T05:45:08.413Z,2140
2017-04-19T05:46:10.206Z,2147
2017-04-19T05:47:12.004Z,2156
2017-04-19T05:48:13.800Z,2166
2017-04-19T05:49:15.595Z,2179
2017-04-19T05:50:17.390Z,2195
2017-04-19T05:51:19.183Z,2205
2017-04-19T05:52:20.981Z,2221
2017-04-19T05:53:22.774Z,2238
2017-04-19T05:54:24.569Z,2251
2017-04-19T05:55:26.509Z,2266
2017-04-19T05:56:28.301Z,2278
2017-04-19T05:57:30.102Z,2295
2017-04-19T05:58:32.226Z,2305
2017-04-19T05:59:34.021Z,2313
2017-04-19T06:00:35.825Z,2310
2017-04-19T06:01:37.614Z,2308
2017-04-19T06:02:39.419Z,2326
2017-04-19T06:03:41.206Z,2491
2017-04-19T06:04:43.007Z,2562
2017-04-19T06:05:44.802Z,2610
2017-04-19T06:06:46.607Z,2576
2017-04-19T06:07:48.587Z,2500
2017-04-19T06:08:50.381Z,2627
2017-04-19T06:09:52.218Z,3141
2017-04-19T06:10:54.018Z,3734
2017-04-19T06:11:55.810Z,4300
2017-04-19T06:12:57.608Z,4243
2017-04-19T06:13:59.407Z,3999
2017-04-19T06:15:01.244Z,3860
2017-04-19T06:16:03.042Z,4004
2017-04-19T06:17:04.840Z,4327
2017-04-19T06:18:06.987Z,4577
2017-04-19T06:19:08.784Z,4669
2017-04-19T06:20:10.990Z,4664
2017-04-19T06:21:12.790Z,4683
2017-04-19T06:22:14.589Z,4782
2017-04-19T06:23:16.391Z,4708
2017-04-19T06:24:18.189Z,4578
2017-04-19T06:25:19.984Z,4583
2017-04-19T06:26:22.119Z,4679
2017-04-19T06:27:23.916Z,4804
2017-04-19T06:28:25.719Z,5138
2017-04-19T06:29:27.881Z,5365
2017-04-19T06:30:29.679Z,5382
2017-04-19T06:31:31.478Z,5207
2017-04-19T06:32:33.674Z,5003
2017-04-19T06:33:35.809Z,4965
2017-04-19T06:34:37.611Z,4990
2017-04-19T06:35:39.411Z,4871
2017-04-19T06:36:41.210Z,4719
2017-04-19T06:37:43.006Z,4591
2017-04-19T06:38:44.809Z,4431
2017-04-19T06:39:46.607Z,4314
2017-04-19T06:40:48.406Z,4116
2017-04-19T06:41:50.206Z,3640
2017-04-19T06:42:52.001Z,3259
2017-04-19T06:43:53.803Z,2744
2017-04-19T06:44:56.045Z,2402
2017-04-19T06:45:57.848Z,2413
2017-04-19T06:46:59.687Z,2611
2017-04-19T06:48:01.490Z,2793
2017-04-19T06:49:03.280Z,2974
2017-04-19T06:50:05.075Z,3132
2017-04-19T06:51:06.873Z,3270
2017-04-19T06:52:08.666Z,3640
2017-04-19T06:53:10.808Z,4068
2017-04-19T06:54:12.601Z,4711
2017-04-19T06:55:14.402Z,5447
2017-04-19T06:56:16.197Z,6115
2017-04-19T06:57:18.642Z,6343
2017-04-19T06:58:20.438Z,5828
2017-04-19T06:59:22.236Z,5627
2017-04-19T07:00:24.039Z,5724
2017-04-19T07:01:25.837Z,5821
2017-04-19T07:02:27.635Z,6317
2017-04-19T07:03:29.437Z,6743
2017-04-19T07:04:31.235Z,6735
2017-04-19T07:05:33.395Z,7053
2017-04-19T07:06:35.191Z,7632
2017-04-19T07:07:36.994Z,7757
2017-04-19T07:08:38.791Z,7334
2017-04-19T07:09:40.918Z,7418
2017-04-19T07:10:42.713Z,8043
2017-04-19T07:11:44.511Z,8582
2017-04-19T07:12:46.313Z,7797
2017-04-19T07:13:48.113Z,6200
2017-04-19T07:14:49.916Z,6003
2017-04-19T07:15:51.713Z,5533
2017-04-19T07:16:53.513Z,5621
2017-04-19T07:17:55.320Z,6233
2017-04-19T07:18:57.117Z,6944
2017-04-19T07:19:58.923Z,8400
2017-04-19T07:21:01.067Z,9257
2017-04-19T07:22:02.947Z,9158
2017-04-19T07:23:04.746Z,8875
2017-04-19T07:24:06.900Z,8046
2017-04-19T07:25:08.704Z,7223
2017-04-19T07:26:10.507Z,6750
2017-04-19T07:27:12.310Z,6092
2017-04-19T07:28:14.106Z,6532
2017-04-19T07:29:15.907Z,6567
2017-04-19T07:30:18.047Z,6656
2017-04-19T07:31:19.850Z,6290
2017-04-19T07:32:21.653Z,6026
2017-04-19T07:33:23.468Z,6061
2017-04-19T07:34:25.346Z,6067
2017-04-19T07:35:27.489Z,6025
2017-04-19T07:36:29.297Z,6147
2017-04-19T07:37:31.098Z,5996
2017-04-19T07:38:33.260Z,4937
2017-04-19T07:39:35.067Z,3861
2017-04-19T07:40:36.873Z,3992
2017-04-19T07:41:38.681Z,4470
2017-04-19T07:42:40.487Z,4761
2017-04-19T07:43:42.290Z,4773
2017-04-19T07:44:44.101Z,4891
2017-04-19T07:45:46.598Z,6277
2017-04-19T07:46:48.404Z,7395
2017-04-19T07:47:50.311Z,7820
2017-04-19T07:48:52.112Z,7726
2017-04-19T07:49:53.915Z,7737
2017-04-19T07:50:55.715Z,7871
2017-04-19T07:51:57.856Z,9499
2017-04-19T07:52:59.655Z,9668
2017-04-19T07:54:01.463Z,9568
2017-04-19T07:55:03.260Z,8928
2017-04-19T07:56:05.062Z,8138
2017-04-19T07:57:06.856Z,8840
2017-04-19T07:58:08.656Z,10046
2017-04-19T07:59:10.463Z,8427
2017-04-19T08:00:12.265Z,7196
2017-04-19T08:01:14.312Z,6223
2017-04-19T08:02:16.114Z,5963
2017-04-19T08:03:17.939Z,5644
2017-04-19T08:04:19.844Z,5341
2017-04-19T08:05:22.120Z,5269
2017-04-19T08:06:24.228Z,7566
2017-04-19T08:07:26.358Z,6094
2017-04-19T08:08:28.618Z,5160
2017-04-19T08:09:30.826Z,4794
2017-04-19T08:10:33.460Z,5602
2017-04-19T08:11:35.912Z,5790
2017-04-19T08:12:38.025Z,5240
2017-04-19T08:13:40.429Z,5820
2017-04-19T08:14:42.803Z,7645
2017-04-19T08:15:45.330Z,6629
2017-04-19T08:16:47.630Z,5521
2017-04-19T08:17:49.925Z,5223
2017-04-19T08:18:52.117Z,5291
2017-04-19T08:19:54.315Z,5385
2017-04-19T08:20:56.723Z,6118
2017-04-19T08:21:58.874Z,8037
2017-04-19T08:23:01.031Z,7811
2017-04-19T08:24:03.243Z,6429
2017-04-19T08:25:05.466Z,6498
2017-04-19T08:26:07.563Z,7228
2017-04-19T08:27:09.696Z,5951
2017-04-19T08:28:11.997Z,5668
2017-04-19T08:29:14.290Z,5849
2017-04-19T08:30:16.139Z,6400
2017-04-19T08:31:18.276Z,7888
2017-04-19T08:32:20.085Z,10735
2017-04-19T08:33:21.887Z,10142
2017-04-19T08:34:23.685Z,10175
2017-04-19T08:35:25.492Z,10394
2017-04-19T08:36:27.295Z,10402
2017-04-19T08:37:29.135Z,10304
2017-04-19T08:38:31.186Z,9773
2017-04-19T08:39:33.675Z,11604
2017-04-19T08:40:36.009Z,12929
2017-04-19T08:41:37.809Z,12650
2017-04-19T08:42:39.626Z,12937
2017-04-19T08:43:42.054Z,12691
2017-04-19T08:44:44.197Z,12673
2017-04-19T08:45:46.338Z,11209
2017-04-19T08:46:48.141Z,11440
2017-04-19T08:47:50.285Z,11114
2017-04-19T08:48:52.091Z,11526
2017-04-19T08:49:53.897Z,12011
2017-04-19T08:50:55.702Z,11493
2017-04-19T08:51:57.499Z,10816
2017-04-19T08:52:59.641Z,10334
2017-04-19T08:54:01.797Z,11082
2017-04-19T08:55:03.604Z,11754
2017-04-19T08:56:05.411Z,11041
2017-04-19T08:57:07.338Z,10230
2017-04-19T08:58:09.145Z,9638
2017-04-19T08:59:10.951Z,8643
2017-04-19T09:00:12.771Z,7611
2017-04-19T09:01:14.577Z,7113
2017-04-19T09:02:16.393Z,7062
2017-04-19T09:03:18.262Z,7346
2017-04-19T09:04:20.101Z,6891
2017-04-19T09:05:21.911Z,6465
2017-04-19T09:06:23.714Z,6238
2017-04-19T09:07:25.523Z,5872
2017-04-19T09:08:27.331Z,6273
2017-04-19T09:09:29.150Z,6372
2017-04-19T09:10:31.108Z,6387
2017-04-19T09:11:32.913Z,6531
2017-04-19T09:14:02.969Z,10704
2017-04-19T09:15:04.768Z,10065
2017-04-19T09:16:06.719Z,10611
2017-04-19T09:17:08.520Z,10447
2017-04-19T09:18:10.330Z,9144
2017-04-19T09:19:12.469Z,8044
2017-04-19T09:20:14.273Z,6744
2017-04-19T09:21:16.426Z,6378
2017-04-19T09:22:18.574Z,5893
2017-04-19T09:23:20.381Z,6665
2017-04-19T09:24:22.241Z,7908
2017-04-19T09:25:24.396Z,9149
2017-04-19T09:26:26.220Z,11109
2017-04-19T09:27:28.709Z,14586
2017-04-19T09:28:30.518Z,16419
2017-04-19T09:29:32.410Z,16914
2017-04-19T09:30:34.215Z,17814
2017-04-19T09:31:36.018Z,18592
2017-04-19T09:32:37.822Z,21403
2017-04-19T09:33:39.622Z,19588
2017-04-19T09:34:41.428Z,19199
2017-04-19T09:35:43.236Z,23277
2017-04-19T09:36:45.055Z,19724
2017-04-19T09:37:47.200Z,18391
2017-04-19T09:38:49.007Z,17487
2017-04-19T09:39:50.821Z,18436
2017-04-19T09:40:52.680Z,17673
2017-04-19T09:41:54.483Z,22985
2017-04-19T09:42:57.907Z,20244
2017-04-19T09:47:49.817Z,24120
2017-04-19T09:48:51.623Z,25367
2017-04-19T09:49:53.433Z,29726
2017-04-19T09:50:55.236Z,29426
2017-04-19T09:51:57.536Z,29023
2017-04-19T09:52:59.687Z,31099
2017-04-19T09:54:02.902Z,27809
2017-04-19T09:55:17.931Z,30766
2017-04-19T09:57:06.192Z,27053
2017-04-19T09:58:08.264Z,24655
2017-04-19T09:59:10.081Z,21917
2017-04-19T10:00:11.881Z,24171
2017-04-19T10:01:13.718Z,23463
2017-04-19T10:02:15.515Z,20759
2017-04-19T10:03:17.332Z,18224
2017-04-19T10:04:19.180Z,19008
2017-04-19T10:05:21.560Z,22003
2017-04-19T10:06:23.378Z,65536
2017-04-19T10:07:25.215Z,34886
2017-04-19T10:08:27.019Z,34883
2017-04-19T10:09:28.828Z,26961
2017-04-19T10:10:30.638Z,25527
2017-04-19T10:11:32.449Z,26038
2017-04-19T10:12:34.278Z,37532
2017-04-19T10:13:36.102Z,65536
2017-04-19T10:14:37.909Z,34007
2017-04-19T10:15:39.717Z,37388
2017-04-19T10:16:41.864Z,65536
2017-04-19T10:17:43.699Z,35094
2017-04-19T10:18:45.824Z,65536
2017-04-19T10:19:47.636Z,65536
2017-04-19T10:20:49.452Z,32191
2017-04-19T10:21:51.262Z,65536
2017-04-19T10:22:53.064Z,65536
2017-04-19T10:23:54.872Z,37220
2017-04-19T10:24:56.704Z,65536
2017-04-19T10:25:58.875Z,28472
2017-04-19T10:27:00.685Z,23247
2017-04-19T10:28:02.495Z,65536
2017-04-19T10:29:04.303Z,34647
2017-04-19T10:30:06.112Z,65536
2017-04-19T10:31:07.922Z,34537
2017-04-19T10:32:10.079Z,23867
2017-04-19T10:33:11.890Z,35291
2017-04-19T10:34:13.700Z,65536
2017-04-19T10:35:15.577Z,65536
2017-04-19T10:36:17.382Z,65536
2017-04-19T10:37:19.195Z,35463
2017-04-19T10:38:21.413Z,65536
2017-04-19T10:39:23.216Z,65536
2017-04-19T10:40:25.028Z,37116
2017-04-19T10:41:26.836Z,65536
2017-04-19T10:42:28.659Z,65536
2017-04-19T10:43:30.465Z,65536
2017-04-19T10:44:32.279Z,65536
2017-04-19T10:45:34.258Z,65536
2017-04-19T10:46:36.070Z,65536
2017-04-19T10:47:37.882Z,65536
2017-04-19T10:48:39.692Z,39294
2017-04-19T10:49:41.503Z,35499
2017-04-19T10:50:43.312Z,25430
2017-04-19T10:51:45.121Z,65536
2017-04-19T10:52:46.930Z,65536
2017-04-19T10:53:48.771Z,65536
2017-04-19T10:54:50.589Z,16713
2017-04-19T10:55:52.396Z,11130
2017-04-19T10:56:54.212Z,8368
2017-04-19T10:57:56.364Z,7006
2017-04-19T10:58:58.180Z,6501
2017-04-19T10:59:59.994Z,6871
2017-04-19T11:01:01.799Z,6992
2017-04-19T11:02:03.607Z,7156
2017-04-19T11:03:05.420Z,7278
2017-04-19T11:04:07.236Z,7375
2017-04-19T11:05:09.382Z,7528
2017-04-19T11:06:11.189Z,7669
2017-04-19T11:07:13.022Z,7940
2017-04-19T11:08:14.821Z,8162
2017-04-19T11:09:16.640Z,8344
2017-04-19T11:10:18.469Z,8646
2017-04-19T11:11:20.813Z,9026
2017-04-19T11:12:22.617Z,9512
2017-04-19T11:13:24.432Z,9749
2017-04-19T11:14:26.242Z,10187
2017-04-19T11:15:28.054Z,10470
2017-04-19T11:16:29.850Z,11322
2017-04-19T11:17:32.006Z,12956
2017-04-19T11:18:33.807Z,13910
2017-04-19T11:19:35.612Z,15859
2017-04-19T11:20:37.416Z,16225
2017-04-19T11:21:39.223Z,17635
2017-04-19T11:22:41.030Z,20092
2017-04-19T11:23:42.968Z,22026
2017-04-19T11:24:44.764Z,24066
2017-04-19T11:25:46.574Z,65536
2017-04-19T11:26:48.380Z,23807
2017-04-19T11:27:50.192Z,30154
2017-04-19T11:28:52.010Z,26182
2017-04-19T11:29:53.812Z,23291
2017-04-19T11:30:55.624Z,23260
2017-04-19T11:31:57.432Z,25223
2017-04-19T11:32:59.237Z,30375
2017-04-19T11:34:01.038Z,26328
2017-04-19T11:35:02.848Z,27302
2017-04-19T11:36:04.659Z,29984
2017-04-19T11:37:07.320Z,65536
2017-04-19T11:38:09.455Z,32756
2017-04-19T11:39:11.261Z,37649
2017-04-19T11:40:13.062Z,65536
2017-04-19T11:41:14.880Z,65536
2017-04-19T11:42:16.684Z,65536
2017-04-19T11:43:18.825Z,65536
2017-04-19T11:44:20.634Z,65536
2017-04-19T11:45:22.443Z,21497
2017-04-19T11:46:24.242Z,19197
2017-04-19T11:47:26.045Z,22316
2017-04-19T11:48:27.856Z,65536
2017-04-19T11:49:29.670Z,65536
2017-04-19T11:50:31.987Z,23246
2017-04-19T11:51:34.133Z,15088
2017-04-19T11:52:35.944Z,14464
2017-04-19T11:53:37.759Z,13875
2017-04-19T11:54:39.576Z,13349
2017-04-19T11:55:41.386Z,13877
2017-04-19T11:56:43.192Z,13817
2017-04-19T11:57:45.001Z,14356
2017-04-19T11:58:46.807Z,12588
2017-04-19T11:59:48.615Z,11527
2017-04-19T12:00:50.429Z,11138
2017-04-19T12:01:52.240Z,11771
2017-04-19T12:02:54.045Z,12577
2017-04-19T12:03:55.855Z,13107
2017-04-19T12:04:57.661Z,14366
2017-04-19T12:05:59.469Z,13767
2017-04-19T12:07:01.613Z,14859
2017-04-19T12:08:03.420Z,16720
2017-04-19T12:09:05.231Z,18564
2017-04-19T12:10:07.043Z,25229
2017-04-19T12:11:09.535Z,37498
2017-04-19T12:12:11.338Z,22232
2017-04-19T12:13:13.140Z,17508
2017-04-19T12:14:14.952Z,17571
2017-04-19T12:15:16.752Z,18678
2017-04-19T12:16:18.624Z,21744
2017-04-19T12:17:20.427Z,28655
2017-04-19T12:18:22.236Z,65536
2017-04-19T12:19:24.046Z,65536
2017-04-19T12:20:25.856Z,22866
2017-04-19T12:21:27.670Z,65536
2017-04-19T12:22:29.477Z,65536
2017-04-19T12:23:31.288Z,65536
2017-04-19T12:24:33.091Z,65536
2017-04-19T12:25:34.900Z,65536
2017-04-19T12:26:36.703Z,65536
2017-04-19T12:27:38.527Z,65536
2017-04-19T12:28:40.330Z,65536
2017-04-19T12:29:42.277Z,18761
2017-04-19T12:30:44.082Z,16776
2017-04-19T12:31:45.899Z,15891
2017-04-19T12:32:47.706Z,15569
2017-04-19T12:33:49.520Z,15064
2017-04-19T12:34:51.326Z,14685
2017-04-19T12:35:53.140Z,14790
2017-04-19T12:36:54.947Z,14803
2017-04-19T12:37:56.754Z,15886
2017-04-19T12:38:58.560Z,17650
2017-04-19T12:40:00.376Z,19075
2017-04-19T12:41:02.186Z,20910
2017-04-19T12:42:04.233Z,29370
2017-04-19T12:43:06.040Z,34945
2017-04-19T12:44:07.858Z,26134
2017-04-19T12:45:10.031Z,65536
2017-04-19T12:46:11.835Z,18993
2017-04-19T12:47:13.650Z,18354
2017-04-19T12:48:15.455Z,65536
2017-04-19T12:49:17.260Z,65536
2017-04-19T12:50:19.069Z,65536
2017-04-19T12:51:20.894Z,65536
2017-04-19T12:52:22.698Z,65536
2017-04-19T12:53:24.511Z,65536
2017-04-19T12:54:26.652Z,65536
2017-04-19T12:55:28.743Z,65536
2017-04-19T12:56:30.551Z,65536
2017-04-19T12:57:32.356Z,65536
2017-04-19T12:58:34.498Z,65536
2017-04-19T12:59:36.303Z,65536
2017-04-19T13:00:38.114Z,22807
2017-04-19T13:01:39.926Z,19418
2017-04-19T13:02:41.736Z,17423
2017-04-19T13:03:43.908Z,16896
2017-04-19T13:04:45.713Z,16869
2017-04-19T13:05:47.522Z,20057
2017-04-19T13:06:49.666Z,65536
2017-04-19T13:07:51.694Z,65536
2017-04-19T13:08:53.509Z,21048
2017-04-19T13:09:55.317Z,19795
2017-04-19T13:10:57.129Z,21137
2017-04-19T13:11:58.935Z,65536
2017-04-19T13:13:00.755Z,65536
2017-04-19T13:14:02.566Z,65536
2017-04-19T13:15:04.381Z,65536
2017-04-19T13:16:06.195Z,65536
2017-04-19T13:17:08.039Z,65536
2017-04-19T13:18:09.884Z,65536
2017-04-19T13:19:11.691Z,23637
2017-04-19T13:20:13.502Z,27224
2017-04-19T13:21:15.411Z,65536
2017-04-19T13:22:17.224Z,65536
2017-04-19T13:23:19.038Z,65536
2017-04-19T13:24:20.865Z,65536
2017-04-19T13:25:22.689Z,65536
2017-04-19T13:26:24.496Z,65536
2017-04-19T13:27:26.313Z,65536
2017-04-19T13:28:28.117Z,65536
2017-04-19T13:29:29.933Z,65536
2017-04-19T13:30:31.747Z,65536
2017-04-19T13:31:33.576Z,65536
2017-04-19T13:32:35.385Z,65536
2017-04-19T13:33:37.668Z,65536
2017-04-19T13:34:48.807Z,28824
2017-04-19T13:36:22.467Z,65536
2017-04-19T13:37:24.282Z,65536
2017-04-19T13:38:26.100Z,25068
2017-04-19T13:39:27.917Z,21243
2017-04-19T13:40:29.735Z,20324
2017-04-19T13:41:31.576Z,19793
2017-04-19T13:42:33.775Z,17924
2017-04-19T13:43:35.591Z,17665
2017-04-19T13:44:37.415Z,17176
2017-04-19T13:45:39.900Z,65536
2017-04-19T13:46:41.790Z,65536
2017-04-19T13:47:43.605Z,65536
2017-04-19T13:48:45.417Z,65536
2017-04-19T13:49:47.284Z,65536
2017-04-19T13:50:49.159Z,65536
2017-04-19T13:51:50.974Z,65536
2017-04-19T13:52:52.814Z,65536
2017-04-19T13:53:55.061Z,65536
2017-04-19T13:54:56.945Z,65536
2017-04-19T13:56:21.039Z,65536
2017-04-19T13:57:29.775Z,65536
2017-04-19T13:58:31.593Z,65536
2017-04-19T13:59:33.471Z,65536
2017-04-19T14:00:35.588Z,65536
2017-04-19T14:01:37.483Z,65536
2017-04-19T14:02:39.642Z,65536
2017-04-19T14:03:41.459Z,28606
2017-04-19T14:04:43.280Z,21366
2017-04-19T14:05:45.113Z,65536
2017-04-19T14:06:47.274Z,65536